Time;durP1;ratioP1;P1;durP2;ratioP2;P2;SDS_P1;SDS_P2;PMS_P1;PMS_P2;Temp;Humidity;BMP_temperature;BMP_pressure;BME280_temperature;BME280_humidity;BME280_pressure;Samples;Min_cycle;Max_cycle;Signal;HPM_P1;HPM_P2
2021/01/10 00:01:18;;;;;;;39.97;20.80;;;;;;;-0.51;100.00;102572.00;4939091;28;20530;-77
2021/01/10 00:03:44;;;;;;;39.47;19.52;;;;;;;-0.53;100.00;102581.66;4937011;28;20070;-77
2021/01/10 00:06:09;;;;;;;38.78;19.10;;;;;;;-0.56;100.00;102576.50;4935561;28;20034;-78
2021/01/10 00:08:35;;;;;;;28.77;18.10;;;;;;;-0.55;100.00;102580.84;4942121;28;20449;-77
2021/01/10 00:11:01;;;;;;;33.22;18.63;;;;;;;-0.76;100.00;102533.28;4949467;28;20031;-77
2021/01/10 00:13:26;;;;;;;34.60;18.63;;;;;;;-0.63;100.00;102560.94;4924582;28;20458;-77
2021/01/10 00:15:52;;;;;;;32.85;18.20;;;;;;;-0.53;100.00;102568.56;4934076;28;20043;-77
2021/01/10 00:18:17;;;;;;;32.53;19.10;;;;;;;-0.72;100.00;102541.94;4949295;28;20399;-77
2021/01/10 00:20:43;;;;;;;41.42;20.83;;;;;;;-0.86;100.00;102516.03;4939879;28;20027;-78
2021/01/10 00:23:08;;;;;;;51.28;22.55;;;;;;;-0.55;100.00;102572.97;4937084;28;20043;-77
2021/01/10 00:25:34;;;;;;;48.67;23.08;;;;;;;-0.58;100.00;102565.19;4938389;28;20055;-78
2021/01/10 00:28:00;;;;;;;50.38;23.27;;;;;;;-0.59;100.00;102569.56;4935192;28;20039;-77
2021/01/10 00:30:26;;;;;;;48.10;22.83;;;;;;;-0.59;100.00;102555.56;4937024;28;20699;-77
2021/01/10 00:32:52;;;;;;;54.45;24.58;;;;;;;-0.59;100.00;102558.19;4973015;28;20506;-77
2021/01/10 00:35:18;;;;;;;52.38;24.08;;;;;;;-0.60;100.00;102557.34;4938284;28;20510;-77
2021/01/10 00:38:10;;;;;;;51.25;22.50;;;;;;;-0.62;100.00;102553.91;4933895;28;20039;-78
2021/01/10 00:40:35;;;;;;;46.47;21.67;;;;;;;-0.71;100.00;102541.03;4941956;28;20031;-78
2021/01/10 00:43:01;;;;;;;43.03;20.83;;;;;;;-0.59;100.00;102558.19;4934736;28;20042;-78
2021/01/10 00:45:26;;;;;;;41.85;20.17;;;;;;;-0.56;100.00;102558.13;4938698;28;20114;-77
2021/01/10 00:47:54;;;;;;;41.53;20.17;;;;;;;-0.54;100.00;102556.34;4941702;28;20090;-78
2021/01/10 00:50:20;;;;;;;43.67;20.97;;;;;;;-0.51;100.00;102554.50;4934942;28;20494;-76
2021/01/10 00:52:45;;;;;;;38.22;18.98;;;;;;;-0.51;100.00;102554.50;4933839;28;20031;-77
2021/01/10 00:55:11;;;;;;;39.00;19.65;;;;;;;-0.48;100.00;102554.41;4927780;28;20043;-77
2021/01/10 00:57:36;;;;;;;43.22;18.67;;;;;;;-0.62;100.00;102520.69;4936630;28;20524;-76
2021/01/10 01:00:16;;;;;;;34.05;18.15;;;;;;;-0.57;100.00;102535.44;4942369;28;20504;-78
2021/01/10 01:02:41;;;;;;;28.17;16.35;;;;;;;-0.49;100.00;102557.94;4922165;28;20524;-78
2021/01/10 01:05:07;;;;;;;27.70;15.05;;;;;;;-0.53;100.00;102558.06;4940628;28;20061;-76
2021/01/10 01:07:33;;;;;;;32.63;16.48;;;;;;;-0.55;100.00;102559.84;4940236;28;20046;-79
2021/01/10 01:09:58;;;;;;;33.25;15.77;;;;;;;-0.56;100.00;102551.16;4937977;28;20039;-77
2021/01/10 01:12:25;;;;;;;29.75;16.13;;;;;;;-0.60;100.00;102553.84;4940717;28;20704;-76
2021/01/10 01:14:50;;;;;;;29.58;15.07;;;;;;;-0.95;100.00;102502.28;4934438;28;20043;-77
2021/01/10 01:17:15;;;;;;;28.08;14.23;;;;;;;-0.66;100.00;102554.88;4968663;28;20027;-76
2021/01/10 01:19:41;;;;;;;23.10;13.75;;;;;;;-0.73;100.00;102548.91;4922731;29;20051;-77
2021/01/10 01:22:06;;;;;;;27.17;14.50;;;;;;;-0.71;100.00;102559.38;4953429;28;20036;-76
2021/01/10 01:24:32;;;;;;;26.38;13.48;;;;;;;-0.74;100.00;102557.69;4937834;28;20044;-76
2021/01/10 01:26:57;;;;;;;25.05;13.07;;;;;;;-0.73;100.00;102564.66;4935146;28;20873;-77
2021/01/10 01:29:23;;;;;;;23.60;12.35;;;;;;;-0.72;100.00;102557.66;4935804;28;20545;-77
2021/01/10 01:31:48;;;;;;;24.73;13.13;;;;;;;-0.74;100.00;102557.69;4944999;28;20588;-77
2021/01/10 01:34:14;;;;;;;28.40;12.75;;;;;;;-0.74;100.00;102564.69;4952514;28;20043;-77
2021/01/10 01:36:39;;;;;;;29.42;12.13;;;;;;;-0.71;100.00;102565.47;4940600;28;20498;-78
2021/01/10 01:39:05;;;;;;;25.40;12.95;;;;;;;-0.64;100.00;102566.19;4937932;28;20039;-77
2021/01/10 01:41:35;;;;;;;22.95;11.95;;;;;;;-0.54;100.00;102567.69;4938823;28;20098;-77
2021/01/10 01:44:00;;;;;;;25.55;11.90;;;;;;;-0.78;100.00;102528.06;4937965;28;20597;-77
2021/01/10 01:46:29;;;;;;;29.17;12.23;;;;;;;-0.50;100.00;102564.09;4930037;28;20154;-77
2021/01/10 01:48:57;;;;;;;29.88;11.48;;;;;;;-0.51;100.00;102569.38;4936209;28;20031;-77
2021/01/10 01:51:22;;;;;;;26.95;12.23;;;;;;;-0.84;100.00;102514.25;4948577;28;20031;-77
2021/01/10 01:53:48;;;;;;;28.90;12.43;;;;;;;-0.89;100.00;102510.91;4943255;28;20058;-77
2021/01/10 01:56:13;;;;;;;21.65;12.80;;;;;;;-0.84;100.00;102523.00;4927527;29;20042;-77
2021/01/10 01:59:01;;;;;;;25.58;12.65;;;;;;;-0.55;100.00;102552.00;4945586;28;20492;-77
2021/01/10 02:01:28;;;;;;;25.63;12.57;;;;;;;-0.56;100.00;102555.50;4928905;29;20352;-77
2021/01/10 02:03:57;;;;;;;21.55;12.50;;;;;;;-0.55;100.00;102560.75;4916323;28;20594;-76
2021/01/10 02:06:24;;;;;;;24.58;12.27;;;;;;;-0.55;100.00;102568.59;4941285;28;20030;-77
2021/01/10 02:08:51;;;;;;;23.08;11.73;;;;;;;-0.51;100.00;102561.50;4919191;28;20036;-77
2021/01/10 02:11:17;;;;;;;33.33;13.23;;;;;;;-0.47;100.00;102558.78;4941070;28;20035;-76
2021/01/10 02:13:42;;;;;;;18.55;11.18;;;;;;;-0.41;100.00;102567.41;4934292;28;20114;-76
2021/01/10 02:16:08;;;;;;;19.17;11.43;;;;;;;-0.36;100.00;102560.25;4928820;28;20039;-77
2021/01/10 02:18:36;;;;;;;23.35;12.50;;;;;;;-0.37;100.00;102556.78;4941451;28;20083;-76
2021/01/10 02:21:02;;;;;;;21.52;11.68;;;;;;;-0.43;100.00;102516.72;4919191;28;20038;-77
2021/01/10 02:23:28;;;;;;;19.48;11.38;;;;;;;-0.13;100.00;102546.53;4938772;28;20035;-77
2021/01/10 02:25:54;;;;;;;20.35;11.43;;;;;;;-0.13;100.00;102540.41;4943665;28;20078;-77
2021/01/10 02:28:23;;;;;;;25.33;12.32;;;;;;;0.03;100.00;102552.19;4942875;28;20047;-78
2021/01/10 02:30:49;;;;;;;21.48;11.50;;;;;;;0.11;100.00;102549.38;4937096;28;20047;-76
2021/01/10 02:33:18;;;;;;;23.05;11.40;;;;;;;0.19;100.00;102546.53;4959383;28;20070;-76
2021/01/10 02:35:43;;;;;;;20.77;11.38;;;;;;;0.25;100.00;102547.22;4956798;28;20039;-77
2021/01/10 02:38:22;;;;;;;18.08;11.10;;;;;;;0.32;100.00;102545.25;4933295;28;20042;-77
2021/01/10 02:41:01;;;;;;;20.77;11.27;;;;;;;0.40;100.00;102540.66;4950262;28;20023;-77
2021/01/10 02:43:27;;;;;;;19.60;10.18;;;;;;;0.44;100.00;102537.03;4934336;28;20229;-77
2021/01/10 02:45:55;;;;;;;22.63;9.82;;;;;;;0.50;99.59;102530.72;4944721;28;20042;-77
2021/01/10 02:48:21;;;;;;;17.88;9.88;;;;;;;0.50;99.36;102528.09;4951432;28;20094;-77
2021/01/10 02:50:47;;;;;;;15.90;9.70;;;;;;;0.49;99.45;102529.00;4928505;28;20122;-77
2021/01/10 02:53:12;;;;;;;17.27;10.20;;;;;;;0.48;99.29;102521.19;4939285;28;20070;-77
2021/01/10 02:55:38;;;;;;;16.88;10.15;;;;;;;0.45;99.36;102520.34;4945892;28;20031;-77
2021/01/10 02:58:10;;;;;;;17.45;10.88;;;;;;;0.43;99.52;102522.16;4936084;28;20469;-78
2021/01/10 03:00:36;;;;;;;17.52;11.07;;;;;;;0.41;99.39;102523.13;4972134;28;20026;-76
2021/01/10 03:03:02;;;;;;;18.45;10.48;;;;;;;0.42;99.20;102525.69;4967458;28;20039;-76
2021/01/10 03:05:28;;;;;;;19.48;9.95;;;;;;;0.28;99.52;102505.09;4956528;28;20039;-76
2021/01/10 03:07:55;;;;;;;18.23;10.43;;;;;;;0.35;99.23;102515.41;4932474;28;20027;-77
2021/01/10 03:10:20;;;;;;;20.70;10.90;;;;;;;0.12;99.41;102499.47;4926914;28;20249;-77
2021/01/10 03:12:46;;;;;;;17.73;10.68;;;;;;;0.22;99.41;102518.41;4945719;28;20039;-77
2021/01/10 03:15:12;;;;;;;18.55;10.90;;;;;;;0.03;99.38;102489.19;4930628;28;20351;-77
2021/01/10 03:17:39;;;;;;;19.05;11.02;;;;;;;0.11;99.52;102520.47;4953518;28;20045;-76
2021/01/10 03:20:06;;;;;;;24.48;12.35;;;;;;;-0.17;99.80;102481.88;4942762;28;20040;-76
2021/01/10 03:22:32;;;;;;;19.47;11.63;;;;;;;0.05;100.00;102523.31;4942237;28;20058;-77
2021/01/10 03:24:57;;;;;;;24.48;13.18;;;;;;;0.01;100.00;102521.66;4940859;28;20043;-78
2021/01/10 03:27:23;;;;;;;17.77;11.77;;;;;;;-0.04;100.00;102513.91;4937504;28;20101;-78
2021/01/10 03:29:48;;;;;;;20.30;12.10;;;;;;;-0.08;100.00;102515.78;4962067;28;20051;-77
2021/01/10 03:32:14;;;;;;;22.85;11.85;;;;;;;-0.13;100.00;102509.78;4960412;28;20047;-78
2021/01/10 03:34:39;;;;;;;22.92;12.77;;;;;;;-0.59;100.00;102438.44;4943607;28;20047;-78
2021/01/10 03:37:05;;;;;;;18.85;11.98;;;;;;;-0.18;100.00;102511.66;4947347;28;20039;-77
2021/01/10 03:39:30;;;;;;;22.92;13.05;;;;;;;-0.18;100.00;102511.66;4957341;28;20525;-79
2021/01/10 03:41:57;;;;;;;22.95;13.82;;;;;;;-0.36;100.00;102479.81;4953359;28;20058;-77
2021/01/10 03:44:23;;;;;;;21.55;13.85;;;;;;;-0.17;100.00;102505.50;4946275;28;20775;-78
2021/01/10 03:46:48;;;;;;;23.83;12.77;;;;;;;-0.19;100.00;102497.69;4938107;28;20039;-77
2021/01/10 03:49:14;;;;;;;20.67;13.48;;;;;;;-0.19;100.00;102495.06;4934645;28;20035;-77
2021/01/10 03:51:39;;;;;;;25.15;14.40;;;;;;;-0.14;100.00;102496.72;4938473;28;20059;-78
2021/01/10 03:54:05;;;;;;;26.33;13.18;;;;;;;-0.50;100.00;102453.06;4944050;28;20406;-78
2021/01/10 03:56:30;;;;;;;22.88;13.27;;;;;;;-0.18;100.00;102496.78;4944736;28;20482;-78
2021/01/10 03:58:56;;;;;;;19.85;13.68;;;;;;;-0.23;100.00;102498.66;4941039;28;20031;-78
2021/01/10 04:01:21;;;;;;;22.00;13.52;;;;;;;-0.29;100.00;102483.13;4956076;28;20039;-79
2021/01/10 04:03:46;;;;;;;23.15;14.48;;;;;;;-0.20;100.00;102498.59;4931957;28;20036;-78
2021/01/10 04:06:12;;;;;;;26.25;14.30;;;;;;;-0.22;100.00;102500.41;4940081;28;20486;-78
2021/01/10 04:08:37;;;;;;;28.48;15.05;;;;;;;-0.68;100.00;102428.22;4956096;28;20027;-78
2021/01/10 04:11:03;;;;;;;24.30;14.75;;;;;;;-0.24;100.00;102498.72;4957164;28;20553;-78
2021/01/10 04:13:28;;;;;;;24.88;16.02;;;;;;;-1.23;100.00;102337.88;4943760;28;20032;-78
2021/01/10 04:15:54;;;;;;;21.42;15.30;;;;;;;-0.39;100.00;102476.38;4943013;28;20039;-77
2021/01/10 04:18:19;;;;;;;23.02;15.23;;;;;;;-0.24;100.00;102501.34;4944344;28;20027;-77
2021/01/10 04:20:45;;;;;;;22.58;14.93;;;;;;;-0.30;100.00;102489.25;4936717;28;20043;-76
2021/01/10 04:23:10;;;;;;;25.17;15.57;;;;;;;-0.30;100.00;102491.88;4944182;28;20094;-78
2021/01/10 04:25:37;;;;;;;22.73;15.43;;;;;;;-0.47;100.00;102468.72;4939812;28;20039;-76
2021/01/10 04:28:03;;;;;;;26.42;15.82;;;;;;;-0.56;100.00;102459.34;4950273;28;20073;-79
2021/01/10 04:30:28;;;;;;;22.67;15.73;;;;;;;-0.58;100.00;102457.66;4965137;28;20067;-78
2021/01/10 04:32:54;;;;;;;25.25;16.70;;;;;;;-0.42;100.00;102487.81;4935068;28;20051;-77
2021/01/10 04:35:19;;;;;;;26.58;16.77;;;;;;;-0.44;100.00;102479.13;4935388;28;20039;-76
2021/01/10 04:37:45;;;;;;;29.25;16.15;;;;;;;-0.47;100.00;102482.69;4940460;28;20035;-77
2021/01/10 04:40:11;;;;;;;29.88;17.00;;;;;;;-0.48;100.00;102482.75;4943111;28;20074;-77
2021/01/10 04:42:37;;;;;;;27.40;17.00;;;;;;;-0.56;100.00;102466.34;4947667;28;20031;-77
2021/01/10 04:45:03;;;;;;;27.55;16.83;;;;;;;-0.67;100.00;102457.00;4935940;28;20019;-77
2021/01/10 04:47:28;;;;;;;26.92;16.88;;;;;;;-0.81;100.00;102427.66;4935829;28;20035;-77
2021/01/10 04:49:54;;;;;;;29.42;17.00;;;;;;;-0.56;100.00;102476.84;4949099;28;20047;-73
2021/01/10 04:52:20;;;;;;;28.55;15.73;;;;;;;-0.62;100.00;102470.00;4937213;28;20015;-77
2021/01/10 04:54:46;;;;;;;26.05;16.38;;;;;;;-0.80;100.00;102445.13;4915134;28;20066;-78
2021/01/10 04:57:11;;;;;;;30.23;16.60;;;;;;;-0.70;100.00;102469.34;4970732;28;20405;-77
2021/01/10 04:59:41;;;;;;;28.30;16.58;;;;;;;-0.58;100.00;102473.38;4925709;29;20027;-77
2021/01/10 05:02:07;;;;;;;27.42;17.25;;;;;;;-0.56;100.00;102467.22;4922568;29;20015;-77
2021/01/10 05:04:33;;;;;;;31.73;19.27;;;;;;;-0.50;100.00;102472.28;4940770;28;20043;-73
2021/01/10 05:06:59;;;;;;;31.90;18.92;;;;;;;-0.63;100.00;102440.31;4916347;28;20038;-78
2021/01/10 05:09:24;;;;;;;29.88;18.50;;;;;;;-0.42;100.00;102466.00;4930614;28;20023;-77
2021/01/10 05:11:50;;;;;;;30.05;17.10;;;;;;;-0.34;100.00;102474.50;4939044;29;20478;-73
2021/01/10 05:14:15;;;;;;;28.90;17.25;;;;;;;-0.64;100.00;102407.13;4937311;28;20066;-78
2021/01/10 05:16:41;;;;;;;27.23;17.02;;;;;;;-0.23;100.00;102464.56;4939204;28;20046;-77
2021/01/10 05:19:06;;;;;;;30.45;16.83;;;;;;;-0.16;100.00;102465.25;4936642;28;20027;-77
2021/01/10 05:21:32;;;;;;;27.38;17.58;;;;;;;-0.14;100.00;102467.84;4933403;28;20098;-77
2021/01/10 05:23:58;;;;;;;28.77;17.33;;;;;;;-0.11;100.00;102468.63;4937311;28;20063;-77
2021/01/10 05:26:32;;;;;;;25.98;16.45;;;;;;;-0.11;100.00;102462.47;4938645;28;20462;-77
2021/01/10 05:29:06;;;;;;;26.38;17.65;;;;;;;-0.11;100.00;102460.75;4937629;28;20491;-77
2021/01/10 05:31:39;;;;;;;24.00;16.00;;;;;;;-0.12;100.00;102455.50;4941454;28;20090;-72
2021/01/10 05:34:05;;;;;;;25.58;15.60;;;;;;;-0.11;100.00;102449.38;4950473;28;20054;-77
2021/01/10 05:36:32;;;;;;;25.40;15.43;;;;;;;-0.12;100.00;102442.38;4936736;28;20616;-77
2021/01/10 05:38:58;;;;;;;25.10;15.18;;;;;;;-0.14;100.00;102445.06;4956076;28;20035;-76
2021/01/10 05:41:24;;;;;;;25.70;14.73;;;;;;;-0.29;100.00;102432.38;4942855;28;20055;-77
2021/01/10 05:43:57;;;;;;;24.77;14.52;;;;;;;-0.25;100.00;102442.75;4936859;28;20043;-77
2021/01/10 05:46:22;;;;;;;25.52;15.38;;;;;;;-0.38;100.00;102426.50;4939149;28;20114;-77
2021/01/10 05:48:48;;;;;;;22.10;14.57;;;;;;;-0.34;100.00;102448.25;4931018;28;20027;-76
2021/01/10 05:51:14;;;;;;;28.00;15.02;;;;;;;-0.41;100.00;102441.47;4930109;28;20046;-77
2021/01/10 05:53:40;;;;;;;24.60;13.95;;;;;;;-0.39;100.00;102448.41;4922092;28;20039;-77
2021/01/10 05:56:05;;;;;;;22.73;15.13;;;;;;;-0.85;100.00;102370.97;4947696;28;20035;-77
2021/01/10 05:58:31;;;;;;;25.55;14.23;;;;;;;-0.43;100.00;102449.38;4916584;28;20058;-76
2021/01/10 06:00:57;;;;;;;23.00;14.68;;;;;;;-0.48;100.00;102446.88;4932709;28;20125;-76
2021/01/10 06:03:23;;;;;;;25.38;15.73;;;;;;;-0.47;100.00;102445.97;4948795;28;20422;-72
2021/01/10 06:05:56;;;;;;;27.48;15.35;;;;;;;-0.49;100.00;102442.53;4938431;28;20113;-76
2021/01/10 06:08:32;;;;;;;29.52;15.35;;;;;;;-0.67;100.00;102417.69;4933780;28;20114;-72
2021/01/10 06:11:23;;;;;;;26.58;15.45;;;;;;;-0.49;100.00;102458.28;4938627;28;20024;-78
2021/01/10 06:13:53;;;;;;;23.35;15.68;;;;;;;-0.48;100.00;102452.13;4947006;28;20130;-76
2021/01/10 06:16:20;;;;;;;24.13;15.65;;;;;;;-1.36;100.00;102305.06;4934502;28;20125;-78
2021/01/10 06:18:50;;;;;;;27.90;17.17;;;;;;;-0.48;100.00;102446.88;4924296;28;20039;-78
2021/01/10 06:21:17;;;;;;;27.65;16.58;;;;;;;-0.42;100.00;102456.34;4941804;28;20014;-78
2021/01/10 06:23:45;;;;;;;37.92;20.42;;;;;;;-0.39;100.00;102451.03;4938663;28;20241;-78
2021/01/10 06:26:10;;;;;;;38.97;21.60;;;;;;;-0.56;100.00;102413.91;4949216;28;20027;-77
2021/01/10 06:28:36;;;;;;;29.92;17.33;;;;;;;-0.28;100.00;102458.59;4928564;29;20526;-78
2021/01/10 06:31:29;;;;;;;27.02;16.80;;;;;;;-0.21;100.00;102459.28;4919962;29;20056;-78
2021/01/10 06:34:15;;;;;;;26.33;16.92;;;;;;;-0.18;100.00;102462.69;4937989;28;20624;-78
2021/01/10 06:36:46;;;;;;;22.30;15.93;;;;;;;-0.82;100.00;102348.19;4972766;28;20059;-78
2021/01/10 06:39:16;;;;;;;28.70;15.93;;;;;;;-0.39;100.00;102422.16;4926057;28;20027;-77
2021/01/10 06:41:56;;;;;;;28.75;16.02;;;;;;;-0.09;100.00;102456.31;4949809;28;20106;-78
2021/01/10 06:44:22;;;;;;;29.85;17.77;;;;;;;-0.04;100.00;102459.63;4939052;28;20035;-78
2021/01/10 06:46:48;;;;;;;28.83;18.13;;;;;;;0.02;100.00;102455.13;4935446;28;20547;-78
2021/01/10 06:49:14;;;;;;;30.15;17.27;;;;;;;0.05;100.00;102468.19;4936765;28;20038;-78
2021/01/10 06:51:39;;;;;;;24.13;17.27;;;;;;;0.03;100.00;102452.44;4943568;28;20046;-78
2021/01/10 06:54:05;;;;;;;29.50;17.75;;;;;;;0.11;100.00;102460.97;4937437;28;20070;-78
2021/01/10 06:56:32;;;;;;;23.30;16.15;;;;;;;0.13;100.00;102463.53;4935492;28;20123;-74
2021/01/10 06:59:25;;;;;;;23.15;16.35;;;;;;;0.13;100.00;102459.19;4938277;28;20137;-74
2021/01/10 07:01:56;;;;;;;24.75;16.25;;;;;;;0.11;100.00;102460.09;4952450;28;20027;-78
2021/01/10 07:04:24;;;;;;;24.15;16.75;;;;;;;0.11;100.00;102465.34;4934789;28;20053;-78
2021/01/10 07:06:51;;;;;;;24.65;16.23;;;;;;;0.12;99.91;102459.19;4976633;28;20062;-78
2021/01/10 07:09:17;;;;;;;29.55;16.48;;;;;;;0.13;99.83;102466.16;4960596;28;20031;-78
2021/01/10 07:11:43;;;;;;;26.92;16.92;;;;;;;0.14;99.65;102460.88;4943904;28;20775;-78
2021/01/10 07:14:11;;;;;;;25.45;16.98;;;;;;;0.15;99.87;102465.22;4971405;28;20093;-78
2021/01/10 07:16:37;;;;;;;21.63;16.52;;;;;;;0.01;99.91;102446.38;4938809;28;20034;-78
2021/01/10 07:19:04;;;;;;;26.80;16.40;;;;;;;0.16;99.85;102468.72;4935246;28;20057;-78
2021/01/10 07:21:42;;;;;;;25.83;15.88;;;;;;;0.19;99.89;102467.75;4910281;29;20023;-74
2021/01/10 07:24:13;;;;;;;23.63;17.50;;;;;;;0.17;100.00;102467.81;4937632;28;20043;-78
2021/01/10 07:26:40;;;;;;;26.17;16.15;;;;;;;0.21;99.62;102468.56;4935478;28;20044;-78
2021/01/10 07:29:28;;;;;;;26.13;16.17;;;;;;;0.21;99.94;102469.41;4938433;28;20051;-78
2021/01/10 07:32:21;;;;;;;25.90;16.45;;;;;;;0.25;99.56;102471.06;4945670;28;20067;-78
2021/01/10 07:34:47;;;;;;;23.33;15.48;;;;;;;0.24;99.42;102471.13;4975801;28;20055;-79
2021/01/10 07:37:15;;;;;;;22.45;14.65;;;;;;;0.24;99.38;102476.38;4942194;28;20038;-74
2021/01/10 07:39:49;;;;;;;26.20;16.55;;;;;;;0.24;99.39;102471.13;4951739;28;20032;-72
2021/01/10 07:42:15;;;;;;;28.35;16.30;;;;;;;0.23;99.34;102472.03;4933691;28;20045;-72
2021/01/10 07:44:48;;;;;;;25.38;16.70;;;;;;;0.24;99.52;102476.38;4940409;28;20061;-77
2021/01/10 07:47:14;;;;;;;25.38;16.63;;;;;;;0.12;99.66;102448.69;4941857;28;20027;-76
2021/01/10 07:49:56;;;;;;;25.83;17.35;;;;;;;0.27;99.72;102465.78;4915576;28;20034;-72
2021/01/10 07:52:41;;;;;;;25.92;16.75;;;;;;;0.25;99.20;102480.72;4939124;28;20154;-78
2021/01/10 07:55:13;;;;;;;29.52;17.25;;;;;;;-0.37;99.61;102374.88;4946059;28;20035;-79
2021/01/10 07:57:39;;;;;;;23.02;15.82;;;;;;;-0.04;99.00;102445.69;4949623;28;20187;-76
2021/01/10 08:00:13;;;;;;;23.05;16.38;;;;;;;0.08;99.01;102465.44;4937643;28;20117;-78
2021/01/10 08:02:44;;;;;;;26.50;15.25;;;;;;;0.19;99.17;102476.50;4931657;28;20110;-78
2021/01/10 08:05:19;;;;;;;28.77;15.43;;;;;;;0.16;99.44;102468.72;4950769;28;20031;-74
2021/01/10 08:07:46;;;;;;;26.38;15.15;;;;;;;0.26;99.50;102478.03;4948320;28;20295;-78
2021/01/10 08:10:13;;;;;;;22.65;15.75;;;;;;;-0.12;99.32;102410.91;4952434;28;20031;-78
2021/01/10 08:12:39;;;;;;;21.77;15.32;;;;;;;0.28;98.86;102478.84;4929355;29;20031;-78
2021/01/10 08:15:06;;;;;;;26.60;16.45;;;;;;;0.29;99.37;102475.31;4954016;28;20581;-74
2021/01/10 08:17:32;;;;;;;27.17;16.70;;;;;;;0.33;99.42;102473.44;4944550;28;20498;-80
2021/01/10 08:19:59;;;;;;;25.77;15.25;;;;;;;0.36;98.62;102475.13;4959039;28;20043;-81
2021/01/10 08:22:24;;;;;;;26.35;15.02;;;;;;;0.40;98.82;102477.63;4958037;28;20160;-79
2021/01/10 08:24:50;;;;;;;23.90;14.32;;;;;;;0.41;98.38;102484.56;4943175;28;20640;-81
2021/01/10 08:27:15;;;;;;;30.48;15.98;;;;;;;0.42;98.32;102482.81;4944782;28;20047;-74
2021/01/10 08:29:41;;;;;;;29.13;15.85;;;;;;;0.26;98.20;102457.03;4936990;28;20043;-79
2021/01/10 08:32:06;;;;;;;27.75;15.35;;;;;;;0.45;98.65;102478.34;4922832;29;20111;-78
2021/01/10 08:34:45;;;;;;;24.90;14.25;;;;;;;0.44;98.25;102473.97;4942007;28;20035;-78
2021/01/10 08:37:11;;;;;;;21.98;14.70;;;;;;;-0.24;98.69;102357.88;4954865;28;20125;-78
2021/01/10 08:39:37;;;;;;;25.27;13.88;;;;;;;0.45;98.53;102472.22;4956910;28;20034;-78
2021/01/10 08:42:02;;;;;;;25.23;13.38;;;;;;;0.61;98.85;102489.22;4929736;28;20053;-78
2021/01/10 08:44:27;;;;;;;22.77;13.48;;;;;;;0.34;98.32;102443.66;4939910;28;20042;-78
2021/01/10 08:46:54;;;;;;;22.95;13.98;;;;;;;0.66;98.70;102498.72;4933407;28;20526;-78
2021/01/10 08:49:22;;;;;;;25.42;13.65;;;;;;;0.56;98.04;102480.63;4939150;28;20035;-78
2021/01/10 08:51:48;;;;;;;21.25;12.55;;;;;;;0.36;97.59;102447.09;4947160;28;20101;-78
2021/01/10 08:54:21;;;;;;;20.95;12.93;;;;;;;0.43;97.54;102459.13;4944464;28;20042;-78
2021/01/10 08:56:51;;;;;;;19.05;11.98;;;;;;;0.60;97.68;102492.78;4930667;28;20038;-78
2021/01/10 08:59:20;;;;;;;26.20;12.77;;;;;;;0.56;97.65;102491.16;4955616;28;20517;-78
2021/01/10 09:01:48;;;;;;;20.20;12.18;;;;;;;0.51;97.76;102503.56;4975289;28;20074;-78
2021/01/10 09:04:14;;;;;;;;;;;;;;;0.47;98.55;102511.56;4931575;28;20058;-74
2021/01/10 09:07:01;;;;;;;21.85;13.48;;;;;;;0.44;98.83;102502.03;4952854;28;19914;-78
2021/01/10 09:09:46;;;;;;;22.85;13.15;;;;;;;0.48;98.63;102513.28;4971280;28;20146;-78
2021/01/10 09:12:31;;;;;;;29.75;13.40;;;;;;;0.49;98.58;102507.97;4970993;28;20114;-78
2021/01/10 09:15:15;;;;;;;21.15;13.23;;;;;;;0.53;99.30;102514.03;4950535;28;20042;-78
2021/01/10 09:18:06;;;;;;;20.70;12.75;;;;;;;0.51;99.43;102494.81;4939362;28;20109;-78
2021/01/10 09:20:36;;;;;;;23.90;12.70;;;;;;;0.70;99.25;102495.94;4937647;28;20652;-78
2021/01/10 09:23:09;;;;;;;23.73;11.10;;;;;;;0.87;99.06;102507.72;4922156;29;20042;-78
2021/01/10 09:25:35;;;;;;;20.05;9.38;;;;;;;0.94;98.00;102498.72;4943942;28;20023;-78
2021/01/10 09:28:19;;;;;;;14.57;8.75;;;;;;;0.99;97.92;102501.22;4938747;28;20035;-75
2021/01/10 09:30:54;;;;;;;17.17;8.55;;;;;;;1.01;97.21;102502.88;4940188;28;20051;-78
2021/01/10 09:33:26;;;;;;;19.25;7.88;;;;;;;0.84;96.84;102476.25;4940132;28;20070;-75
2021/01/10 09:35:52;;;;;;;15.68;7.90;;;;;;;1.05;97.26;102509.75;4970862;28;20146;-78
2021/01/10 09:38:19;;;;;;;11.95;7.88;;;;;;;1.09;97.27;102510.50;4933115;28;20150;-78
2021/01/10 09:41:09;;;;;;;16.17;8.10;;;;;;;1.15;96.78;102507.69;4923364;29;20058;-79
2021/01/10 09:43:39;;;;;;;20.17;7.97;;;;;;;1.21;96.87;102504.00;4951380;28;20092;-78
2021/01/10 09:46:20;;;;;;;14.45;7.32;;;;;;;1.00;96.73;102453.81;4933664;29;20600;-77
2021/01/10 09:49:16;;;;;;;17.05;8.30;;;;;;;1.32;96.16;102503.59;4938884;28;20106;-76
2021/01/10 09:51:54;;;;;;;16.15;7.32;;;;;;;1.33;96.10;102498.31;4939642;28;20035;-76
2021/01/10 09:54:21;;;;;;;11.40;5.93;;;;;;;1.33;95.94;102490.41;4939537;28;20062;-76
2021/01/10 09:56:53;;;;;;;14.35;6.57;;;;;;;1.36;96.35;102482.41;4936550;28;20518;-76
2021/01/10 09:59:41;;;;;;;12.13;6.53;;;;;;;1.43;96.66;102498.00;4939718;28;20118;-76
2021/01/10 10:02:07;;;;;;;16.20;6.57;;;;;;;1.45;96.64;102496.16;4933890;28;20038;-76
2021/01/10 10:04:32;;;;;;;14.95;6.10;;;;;;;1.50;96.63;102495.09;4936444;28;20042;-76
2021/01/10 10:06:58;;;;;;;15.07;5.85;;;;;;;1.53;96.13;102496.75;4939052;28;20576;-77
2021/01/10 10:09:23;;;;;;;12.60;6.10;;;;;;;1.58;96.13;102493.94;4938547;28;20102;-76
2021/01/10 10:11:52;;;;;;;14.57;6.40;;;;;;;1.59;95.99;102490.41;4935949;28;20050;-77
2021/01/10 10:14:17;;;;;;;16.58;6.43;;;;;;;1.68;95.52;102503.25;4924307;29;20035;-76
2021/01/10 10:16:43;;;;;;;13.80;6.03;;;;;;;1.64;95.84;102483.22;4922112;29;20703;-77
2021/01/10 10:19:08;;;;;;;17.02;6.50;;;;;;;1.62;95.95;102467.50;4937284;28;20035;-77
2021/01/10 10:21:34;;;;;;;13.57;5.97;;;;;;;1.49;95.44;102440.75;4951663;28;20038;-77
2021/01/10 10:23:59;;;;;;;15.93;6.85;;;;;;;1.77;95.23;102462.56;4937549;28;20042;-77
2021/01/10 10:26:25;;;;;;;13.70;8.55;;;;;;;2.02;95.33;102495.91;4936374;28;20086;-77
2021/01/10 10:28:50;;;;;;;14.73;7.70;;;;;;;2.09;95.07;102487.75;4938559;28;20782;-77
2021/01/10 10:31:16;;;;;;;17.17;6.90;;;;;;;2.18;95.20;102489.13;4936971;28;20062;-77
2021/01/10 10:33:41;;;;;;;12.20;6.95;;;;;;;2.28;94.68;102485.25;4939539;28;21755;-77
2021/01/10 10:36:07;;;;;;;10.60;5.57;;;;;;;2.38;93.99;102485.75;4933376;28;20512;-78
2021/01/10 10:38:34;;;;;;;9.95;5.40;;;;;;;2.49;93.20;102484.50;4937559;28;20035;-77
2021/01/10 10:41:00;;;;;;;10.70;6.22;;;;;;;2.60;93.09;102474.38;4938744;28;20049;-77
2021/01/10 10:43:26;;;;;;;11.63;5.57;;;;;;;2.67;93.62;102478.47;4939948;28;20039;-77
2021/01/10 10:45:54;;;;;;;11.70;5.70;;;;;;;2.74;92.83;102472.06;4937487;28;20129;-77
2021/01/10 10:48:19;;;;;;;12.60;5.60;;;;;;;2.84;92.75;102466.38;4935684;28;20297;-79
2021/01/10 10:50:45;;;;;;;12.07;7.13;;;;;;;2.86;92.11;102472.47;4968316;28;20114;-78
2021/01/10 10:53:11;;;;;;;10.52;5.78;;;;;;;2.82;92.24;102444.50;4939437;28;20035;-77
2021/01/10 10:55:36;;;;;;;10.88;5.53;;;;;;;2.75;91.76;102414.88;4937396;28;20042;-77
2021/01/10 10:58:02;;;;;;;13.30;5.40;;;;;;;3.13;90.68;102462.53;4930218;28;20031;-78
2021/01/10 11:00:27;;;;;;;10.32;5.25;;;;;;;3.24;90.44;102477.06;4941638;28;20118;-77
2021/01/10 11:02:53;;;;;;;9.32;5.50;;;;;;;3.32;90.37;102461.75;4942902;28;20045;-78
2021/01/10 11:05:22;;;;;;;12.45;5.03;;;;;;;3.38;90.61;102461.50;4944103;28;20123;-78
2021/01/10 11:07:47;;;;;;;9.10;4.63;;;;;;;3.44;88.98;102463.03;4961524;28;20333;-77
2021/01/10 11:10:13;;;;;;;9.23;5.47;;;;;;;3.52;89.50;102466.19;4935726;28;20042;-77
2021/01/10 11:12:38;;;;;;;11.23;6.20;;;;;;;3.53;89.88;102455.53;4938572;28;20038;-77
2021/01/10 11:15:04;;;;;;;10.88;5.85;;;;;;;3.51;89.43;102441.56;4918872;28;20118;-77